createdAt,value
2023-05-19T00:00:24.769Z,61.72
2023-05-19T00:02:53.469Z,61.74
2023-05-19T00:05:23.063Z,61.15
2023-05-19T00:07:53.510Z,61.29
2023-05-19T00:10:22.412Z,61.00
2023-05-19T00:12:52.465Z,61.27
2023-05-19T00:15:24.112Z,60.96
2023-05-19T00:17:52.391Z,60.45
2023-05-19T00:20:20.424Z,60.97
2023-05-19T00:22:48.457Z,60.42
2023-05-19T00:25:16.530Z,60.62
2023-05-19T00:27:44.537Z,60.59
2023-05-19T00:30:13.311Z,60.81
2023-05-19T00:32:42.672Z,60.55
2023-05-19T00:35:11.426Z,60.60
2023-05-19T00:37:39.415Z,60.73
2023-05-19T00:40:09.767Z,60.61
2023-05-19T00:42:37.917Z,61.17
2023-05-19T00:45:07.461Z,60.85
2023-05-19T00:47:36.165Z,60.60
2023-05-19T00:50:06.349Z,60.39
2023-05-19T00:52:34.395Z,60.95
2023-05-19T00:55:02.425Z,61.22
2023-05-19T00:57:30.550Z,61.17
2023-05-19T00:59:58.570Z,61.64
2023-05-19T01:02:26.736Z,61.95
2023-05-19T01:04:55.421Z,61.95
2023-05-19T01:07:25.370Z,62.29
2023-05-19T01:09:53.398Z,62.60
2023-05-19T01:12:21.376Z,62.35
2023-05-19T01:14:50.138Z,62.29
2023-05-19T01:17:28.344Z,62.60
2023-05-19T01:20:06.889Z,62.44
2023-05-19T01:23:19.692Z,62.81
2023-05-19T01:26:28.986Z,63.18
2023-05-19T01:29:37.993Z,62.82
2023-05-19T01:32:10.406Z,62.98
2023-05-19T01:34:45.063Z,63.13
2023-05-19T01:37:17.178Z,63.48
2023-05-19T01:39:46.402Z,63.34
2023-05-19T01:42:16.861Z,63.79
2023-05-19T01:44:45.650Z,64.15
2023-05-19T01:47:16.078Z,64.10
2023-05-19T01:49:44.008Z,64.28
2023-05-19T01:52:12.031Z,64.30
2023-05-19T01:54:40.000Z,64.79
2023-05-19T01:57:24.499Z,64.62
2023-05-19T02:00:11.675Z,64.95
2023-05-19T02:02:57.830Z,65.11
2023-05-19T02:05:36.595Z,65.41
2023-05-19T02:08:17.104Z,65.52
2023-05-19T02:10:56.148Z,66.26
2023-05-19T02:13:30.812Z,65.91
2023-05-19T02:16:06.205Z,66.02
2023-05-19T02:18:36.267Z,66.16
2023-05-19T02:21:04.404Z,66.47
2023-05-19T02:23:32.596Z,66.55
2023-05-19T02:26:01.022Z,66.52
2023-05-19T02:28:28.928Z,66.66
2023-05-19T02:30:56.979Z,66.83
2023-05-19T02:33:27.405Z,66.86
2023-05-19T02:35:56.775Z,66.65
2023-05-19T02:38:24.875Z,66.57
2023-05-19T02:40:53.477Z,66.88
2023-05-19T02:43:21.543Z,66.76
2023-05-19T02:45:49.628Z,66.91
2023-05-19T02:48:17.575Z,67.07
2023-05-19T02:50:45.623Z,67.11
2023-05-19T02:53:15.047Z,66.92
2023-05-19T02:55:43.754Z,66.39
2023-05-19T02:58:11.868Z,66.82
2023-05-19T03:00:39.800Z,66.74
2023-05-19T03:03:10.365Z,66.83
2023-05-19T03:05:38.495Z,66.77
2023-05-19T03:08:06.883Z,67.02
2023-05-19T03:10:36.258Z,67.02
2023-05-19T03:13:04.224Z,67.14
2023-05-19T03:15:32.412Z,67.10
2023-05-19T03:18:00.714Z,67.28
2023-05-19T03:20:30.530Z,67.27
2023-05-19T03:22:59.378Z,66.88
2023-05-19T03:25:27.327Z,67.26
2023-05-19T03:27:56.737Z,67.51
2023-05-19T03:30:24.778Z,67.69
2023-05-19T03:32:53.194Z,67.37
2023-05-19T03:35:21.574Z,67.61
2023-05-19T03:37:49.482Z,67.45
2023-05-19T03:40:18.798Z,67.64
2023-05-19T03:42:46.773Z,68.00
2023-05-19T03:45:16.300Z,67.77
2023-05-19T03:47:44.241Z,67.87
2023-05-19T03:50:12.700Z,67.67
2023-05-19T03:52:46.563Z,67.48
2023-05-19T03:55:15.086Z,67.44
2023-05-19T03:57:44.299Z,66.89
2023-05-19T04:00:15.688Z,66.60
2023-05-19T04:02:43.731Z,66.47
2023-05-19T04:05:12.068Z,66.72
2023-05-19T04:07:40.031Z,65.58
2023-05-19T04:10:09.472Z,64.53
2023-05-19T04:12:37.406Z,62.75
2023-05-19T04:15:06.838Z,62.08
2023-05-19T04:17:36.214Z,62.01
2023-05-19T04:20:05.738Z,61.18
2023-05-19T04:22:33.787Z,60.43
2023-05-19T04:25:01.805Z,60.87
2023-05-19T04:27:31.887Z,61.60
2023-05-19T04:29:59.875Z,61.37
2023-05-19T04:32:29.290Z,61.16
2023-05-19T04:34:59.314Z,61.01
2023-05-19T04:37:27.413Z,61.53
2023-05-19T04:39:55.420Z,61.79
2023-05-19T04:42:26.069Z,61.99
2023-05-19T04:44:54.022Z,61.98
2023-05-19T04:47:22.493Z,61.36
2023-05-19T04:49:55.333Z,60.80
2023-05-19T04:52:24.720Z,60.01
2023-05-19T04:54:52.869Z,58.93
2023-05-19T04:57:21.053Z,59.18
2023-05-19T04:59:49.381Z,58.57
2023-05-19T05:02:17.462Z,57.01
2023-05-19T05:04:46.556Z,57.36
2023-05-19T05:07:14.670Z,55.81
2023-05-19T05:09:44.365Z,55.61
2023-05-19T05:12:14.081Z,54.84
2023-05-19T05:14:44.701Z,53.62
2023-05-19T05:17:13.934Z,53.76
2023-05-19T05:19:42.591Z,54.67
2023-05-19T05:22:11.490Z,54.36
2023-05-19T05:24:40.283Z,53.63
2023-05-19T05:27:10.273Z,53.08
2023-05-19T05:29:38.485Z,52.47
2023-05-19T05:32:07.886Z,53.62
2023-05-19T05:34:38.065Z,55.02
2023-05-19T05:37:06.562Z,55.79
2023-05-19T05:39:34.527Z,55.95
2023-05-19T05:42:02.589Z,56.44
2023-05-19T05:44:35.665Z,56.93
2023-05-19T05:47:04.833Z,56.27
2023-05-19T05:49:35.694Z,57.07
2023-05-19T05:52:06.830Z,57.56
2023-05-19T05:54:36.006Z,57.64
2023-05-19T05:57:07.153Z,57.87
2023-05-19T05:59:36.435Z,57.42
2023-05-19T06:02:05.589Z,57.84
2023-05-19T06:04:33.647Z,57.42
2023-05-19T06:07:01.978Z,57.18
2023-05-19T06:09:30.650Z,57.34
2023-05-19T06:12:00.312Z,56.65
2023-05-19T06:14:28.518Z,56.66
2023-05-19T06:16:57.850Z,55.87
2023-05-19T06:19:26.277Z,56.67
2023-05-19T06:21:54.292Z,56.76
2023-05-19T06:24:22.256Z,56.01
2023-05-19T06:26:50.228Z,55.21
2023-05-19T06:29:18.243Z,56.21
2023-05-19T06:31:46.567Z,55.75
2023-05-19T06:34:17.649Z,55.09
2023-05-19T06:36:45.748Z,54.29
2023-05-19T06:39:13.918Z,53.83
2023-05-19T06:41:41.890Z,53.83
2023-05-19T06:44:10.082Z,53.74
2023-05-19T06:46:38.167Z,54.02
2023-05-19T06:49:06.271Z,53.48
2023-05-19T06:51:35.856Z,52.57
2023-05-19T06:54:04.097Z,52.92
2023-05-19T06:56:32.031Z,52.02
2023-05-19T06:59:00.040Z,52.11
2023-05-19T07:01:28.556Z,53.67
2023-05-19T07:03:56.902Z,53.47
2023-05-19T07:06:25.096Z,54.18
2023-05-19T07:08:54.414Z,54.34
2023-05-19T07:11:22.944Z,54.02
2023-05-19T07:13:51.013Z,53.88
2023-05-19T07:16:19.014Z,53.54
2023-05-19T07:18:47.073Z,53.38
2023-05-19T07:21:15.041Z,53.44
2023-05-19T07:23:43.087Z,52.18
2023-05-19T07:26:12.443Z,52.03
2023-05-19T07:28:41.740Z,51.23
2023-05-19T07:31:10.320Z,50.92
2023-05-19T07:33:38.457Z,50.08
2023-05-19T07:36:06.681Z,50.32
2023-05-19T07:38:35.776Z,49.65
2023-05-19T07:41:04.546Z,49.53
2023-05-19T07:43:34.155Z,49.37
2023-05-19T07:46:02.199Z,49.55
2023-05-19T07:48:30.436Z,49.22
2023-05-19T07:50:58.689Z,49.97
2023-05-19T07:53:27.974Z,50.21
2023-05-19T07:55:58.416Z,49.28
2023-05-19T07:58:28.045Z,48.87
2023-05-19T08:01:00.257Z,48.67
2023-05-19T08:03:28.690Z,49.09
2023-05-19T08:05:56.743Z,48.96
2023-05-19T08:08:25.138Z,48.94
2023-05-19T08:10:53.059Z,49.27
2023-05-19T08:13:21.014Z,49.26
2023-05-19T08:15:49.023Z,48.94
2023-05-19T08:18:18.330Z,48.43
2023-05-19T08:20:46.704Z,48.10
2023-05-19T08:23:14.707Z,47.50
2023-05-19T08:25:42.614Z,45.69
2023-05-19T08:28:10.771Z,45.50
2023-05-19T08:30:38.968Z,45.33
2023-05-19T08:33:07.367Z,44.64
2023-05-19T08:35:36.760Z,43.71
2023-05-19T08:38:04.758Z,43.25
2023-05-19T08:40:36.051Z,43.53
2023-05-19T08:43:04.258Z,42.86
2023-05-19T08:45:34.549Z,42.38
2023-05-19T08:48:04.136Z,42.17
2023-05-19T08:50:40.278Z,41.71
2023-05-19T08:53:31.856Z,42.13
2023-05-19T08:56:10.963Z,40.72
2023-05-19T08:58:41.293Z,40.80
2023-05-19T09:01:09.982Z,41.46
2023-05-19T09:03:39.281Z,40.84
2023-05-19T09:06:09.963Z,41.30
2023-05-19T09:08:38.096Z,41.46
2023-05-19T09:11:06.391Z,40.35
2023-05-19T09:13:34.801Z,40.58
2023-05-19T09:16:04.287Z,41.00
2023-05-19T09:18:32.683Z,40.88
2023-05-19T09:21:03.238Z,40.52
2023-05-19T09:23:34.491Z,40.32
2023-05-19T09:26:07.408Z,40.44
2023-05-19T09:28:37.946Z,39.44
2023-05-19T09:31:07.812Z,39.71
2023-05-19T09:33:37.837Z,38.85
2023-05-19T09:36:08.444Z,39.07
2023-05-19T09:38:39.400Z,38.28
2023-05-19T09:41:09.190Z,39.91
2023-05-19T09:43:37.459Z,39.28
2023-05-19T09:46:07.120Z,38.71
2023-05-19T09:48:35.556Z,37.80
2023-05-19T09:51:05.219Z,38.50
2023-05-19T09:53:33.809Z,37.27
2023-05-19T09:56:04.431Z,37.49
2023-05-19T09:58:35.304Z,37.44
2023-05-19T10:01:06.040Z,37.07
2023-05-19T10:03:35.498Z,36.60
2023-05-19T10:06:07.384Z,36.63
2023-05-19T10:08:35.925Z,37.41
2023-05-19T10:11:06.718Z,37.23
2023-05-19T10:13:38.494Z,36.46
2023-05-19T10:16:10.047Z,36.00
2023-05-19T10:18:40.058Z,36.61
2023-05-19T10:21:09.670Z,36.42
2023-05-19T10:23:37.778Z,36.13
2023-05-19T10:26:09.829Z,37.77
2023-05-19T10:28:42.016Z,36.79
2023-05-19T10:31:19.041Z,37.40
2023-05-19T10:34:22.178Z,36.89
2023-05-19T10:37:00.147Z,36.80
2023-05-19T10:39:36.552Z,35.38
2023-05-19T10:42:17.789Z,35.40
2023-05-19T10:45:03.185Z,35.53
2023-05-19T10:47:32.436Z,34.65
2023-05-19T10:50:02.529Z,35.39
2023-05-19T10:52:32.982Z,35.47
2023-05-19T10:55:02.537Z,34.91
2023-05-19T10:57:33.260Z,35.28
2023-05-19T11:00:11.246Z,35.16
2023-05-19T11:02:42.956Z,34.89
2023-05-19T11:05:14.639Z,35.56
2023-05-19T11:07:44.695Z,35.96
2023-05-19T11:10:13.912Z,35.88
2023-05-19T11:12:46.145Z,35.27
2023-05-19T11:15:16.551Z,35.30
2023-05-19T11:17:49.952Z,35.80
2023-05-19T11:20:25.695Z,35.79
2023-05-19T11:23:08.899Z,34.44
2023-05-19T11:25:45.791Z,35.14
2023-05-19T11:28:19.446Z,35.64
2023-05-19T11:30:50.540Z,36.34
2023-05-19T11:33:20.637Z,35.54
2023-05-19T11:35:51.094Z,35.35
2023-05-19T11:38:20.868Z,34.03
2023-05-19T11:40:50.002Z,33.56
2023-05-19T11:43:19.519Z,32.91
2023-05-19T11:45:47.850Z,32.15
2023-05-19T11:48:17.365Z,32.69
2023-05-19T11:50:46.824Z,32.54
2023-05-19T11:53:16.335Z,32.12
2023-05-19T11:55:46.432Z,32.76
2023-05-19T11:58:14.834Z,31.81
2023-05-19T12:00:47.673Z,31.80
2023-05-19T12:03:17.356Z,32.45
2023-05-19T12:05:49.788Z,32.61
2023-05-19T12:08:19.395Z,32.40
2023-05-19T12:10:50.488Z,33.29
2023-05-19T12:13:18.604Z,34.03
2023-05-19T12:15:48.043Z,35.45
2023-05-19T12:18:16.119Z,34.83
2023-05-19T12:20:44.796Z,34.49
2023-05-19T12:23:14.342Z,33.71
2023-05-19T12:25:42.605Z,33.69
2023-05-19T12:28:11.529Z,33.55
2023-05-19T12:30:39.567Z,33.25
2023-05-19T12:33:09.947Z,32.69
2023-05-19T12:35:39.116Z,32.83
2023-05-19T12:38:08.378Z,33.30
2023-05-19T12:40:37.553Z,33.58
2023-05-19T12:43:07.797Z,33.45
2023-05-19T12:45:37.045Z,33.42
2023-05-19T12:48:06.948Z,33.72
2023-05-19T12:50:38.906Z,33.88
2023-05-19T12:53:09.960Z,32.70
2023-05-19T12:55:42.660Z,33.81
2023-05-19T12:58:11.488Z,33.81
2023-05-19T13:00:43.532Z,33.71
2023-05-19T13:03:18.241Z,34.06
2023-05-19T13:05:49.498Z,34.48
2023-05-19T13:08:20.082Z,34.10
2023-05-19T13:10:50.086Z,33.86
2023-05-19T13:13:18.677Z,33.10
2023-05-19T13:15:49.583Z,33.63
2023-05-19T13:18:18.603Z,34.23
2023-05-19T13:20:50.057Z,34.06
2023-05-19T13:23:18.613Z,34.61
2023-05-19T13:25:46.929Z,33.62
2023-05-19T13:28:15.125Z,34.01
2023-05-19T13:30:45.475Z,34.32
2023-05-19T13:33:13.822Z,34.60
2023-05-19T13:35:42.171Z,34.46
2023-05-19T13:38:11.948Z,33.65
2023-05-19T13:40:40.540Z,34.23
2023-05-19T13:43:09.569Z,35.15
2023-05-19T13:45:37.720Z,34.85
2023-05-19T13:48:07.348Z,34.82
2023-05-19T13:50:35.612Z,34.92
2023-05-19T13:53:03.657Z,35.00
2023-05-19T13:55:33.367Z,35.71
2023-05-19T13:58:01.226Z,35.39
2023-05-19T14:00:29.480Z,35.14
2023-05-19T14:02:57.818Z,35.41
2023-05-19T14:05:27.512Z,35.75
2023-05-19T14:07:55.517Z,35.64
2023-05-19T14:10:23.818Z,35.71
2023-05-19T14:15:26.746Z,36.00
2023-05-19T14:17:54.966Z,35.83
2023-05-19T14:20:23.160Z,35.45
2023-05-19T14:22:51.051Z,35.47
2023-05-19T14:25:19.111Z,35.54
2023-05-19T14:27:47.034Z,36.81
2023-05-19T14:30:16.437Z,36.05
2023-05-19T14:32:44.419Z,36.06
2023-05-19T14:35:12.712Z,35.99
2023-05-19T14:37:40.686Z,36.15
2023-05-19T14:40:10.093Z,36.87
2023-05-19T14:42:38.065Z,36.48
2023-05-19T14:45:07.186Z,36.26
2023-05-19T14:47:36.599Z,36.37
2023-05-19T14:50:04.947Z,35.82
2023-05-19T14:52:32.863Z,36.02
2023-05-19T14:55:00.987Z,37.20
2023-05-19T14:57:28.939Z,36.20
2023-05-19T14:59:56.957Z,35.15
2023-05-19T15:02:25.606Z,34.13
2023-05-19T15:04:56.178Z,34.03
2023-05-19T15:07:24.621Z,33.49
2023-05-19T15:09:52.597Z,34.01
2023-05-19T15:12:20.731Z,34.32
2023-05-19T15:14:48.711Z,35.32
2023-05-19T15:17:17.012Z,35.70
2023-05-19T15:19:45.282Z,34.71
2023-05-19T15:22:14.758Z,35.27
2023-05-19T15:24:42.845Z,36.22
2023-05-19T15:27:11.294Z,35.83
2023-05-19T15:29:39.411Z,34.93
2023-05-19T15:32:08.999Z,33.31
2023-05-19T15:34:37.035Z,32.92
2023-05-19T15:37:05.370Z,32.91
2023-05-19T15:39:34.905Z,33.23
2023-05-19T15:42:03.015Z,33.04
2023-05-19T15:44:31.052Z,32.32
2023-05-19T15:46:58.999Z,33.05
2023-05-19T15:49:26.926Z,33.53
2023-05-19T15:51:54.865Z,34.45
2023-05-19T15:54:22.809Z,34.26
2023-05-19T15:56:52.103Z,34.82
2023-05-19T15:59:20.101Z,34.21
2023-05-19T16:01:49.054Z,34.55
2023-05-19T16:04:17.746Z,34.55
2023-05-19T16:06:45.882Z,35.02
2023-05-19T16:09:13.767Z,35.01
2023-05-19T16:11:41.723Z,36.07
2023-05-19T16:14:11.087Z,34.94
2023-05-19T16:16:39.073Z,34.63
2023-05-19T16:19:07.333Z,35.75
2023-05-19T16:21:36.079Z,35.75
2023-05-19T16:24:04.148Z,36.35
2023-05-19T16:26:33.102Z,35.50
2023-05-19T16:29:01.156Z,36.14
2023-05-19T16:31:30.896Z,35.49
2023-05-19T16:33:58.912Z,35.61
2023-05-19T16:36:26.919Z,35.87
2023-05-19T16:38:54.841Z,36.91
2023-05-19T16:41:22.766Z,37.67
2023-05-19T16:43:50.777Z,37.88
2023-05-19T16:46:18.952Z,38.52
2023-05-19T16:48:50.872Z,39.62
2023-05-19T16:51:18.788Z,39.46
2023-05-19T16:53:46.756Z,39.43
2023-05-19T16:56:14.627Z,39.41
2023-05-19T16:58:43.765Z,40.27
2023-05-19T17:01:11.966Z,39.44
2023-05-19T17:03:40.064Z,39.41
2023-05-19T17:06:09.522Z,40.05
2023-05-19T17:08:37.501Z,40.04
2023-05-19T17:11:06.454Z,40.38
2023-05-19T17:13:36.272Z,40.96
2023-05-19T17:16:04.284Z,40.95
2023-05-19T17:18:32.294Z,41.75
2023-05-19T17:21:03.479Z,41.61
2023-05-19T17:23:33.300Z,41.77
2023-05-19T17:26:01.729Z,41.82
2023-05-19T17:28:32.308Z,41.82
2023-05-19T17:31:00.415Z,41.69
2023-05-19T17:33:28.371Z,41.88
2023-05-19T17:35:56.633Z,41.84
2023-05-19T17:38:24.617Z,41.92
2023-05-19T17:40:54.021Z,41.61
2023-05-19T17:43:24.240Z,42.41
2023-05-19T17:45:52.357Z,41.89
2023-05-19T17:48:21.148Z,42.07
2023-05-19T17:50:49.339Z,42.54
2023-05-19T17:53:17.972Z,42.31
2023-05-19T17:55:54.376Z,42.60
2023-05-19T17:58:23.054Z,42.97
2023-05-19T18:00:52.083Z,42.68
2023-05-19T18:03:21.167Z,42.79
2023-05-19T18:05:51.028Z,43.34
2023-05-19T18:08:19.457Z,44.00
2023-05-19T18:10:48.607Z,43.88
2023-05-19T18:13:18.115Z,44.10
2023-05-19T18:15:46.173Z,43.80
2023-05-19T18:18:14.196Z,44.43
2023-05-19T18:20:44.730Z,44.51
2023-05-19T18:23:13.335Z,44.60
2023-05-19T18:25:41.300Z,44.98
2023-05-19T18:28:09.500Z,44.94
2023-05-19T18:30:38.936Z,44.98
2023-05-19T18:33:07.268Z,45.68
2023-05-19T18:35:37.006Z,45.53
2023-05-19T18:38:05.055Z,45.57
2023-05-19T18:40:33.301Z,45.89
2023-05-19T18:43:01.522Z,45.89
2023-05-19T18:45:29.523Z,46.05
2023-05-19T18:47:59.031Z,46.15
2023-05-19T18:50:27.088Z,46.56
2023-05-19T18:52:55.318Z,46.19
2023-05-19T18:55:24.359Z,46.42
2023-05-19T18:57:53.960Z,47.00
2023-05-19T19:00:22.006Z,46.98
2023-05-19T19:02:50.001Z,47.14
2023-05-19T19:05:19.510Z,47.34
2023-05-19T19:07:47.531Z,47.81
2023-05-19T19:10:15.652Z,47.69
2023-05-19T19:12:43.700Z,48.15
2023-05-19T19:15:12.734Z,48.28
2023-05-19T19:17:41.022Z,48.46
2023-05-19T19:20:10.633Z,48.66
2023-05-19T19:22:39.992Z,48.94
2023-05-19T19:25:08.914Z,49.14
2023-05-19T19:27:36.816Z,49.19
2023-05-19T19:30:05.578Z,49.38
2023-05-19T19:32:33.604Z,49.30
2023-05-19T19:35:01.775Z,49.92
2023-05-19T19:37:29.704Z,49.90
2023-05-19T19:39:58.975Z,50.00
2023-05-19T19:42:27.003Z,49.88
2023-05-19T19:44:56.587Z,50.29
2023-05-19T19:47:24.728Z,50.73
2023-05-19T19:49:52.781Z,50.89
2023-05-19T19:52:20.730Z,51.11
2023-05-19T19:54:49.063Z,51.35
2023-05-19T19:57:18.426Z,51.23
2023-05-19T19:59:46.389Z,51.78
2023-05-19T20:02:15.360Z,51.68
2023-05-19T20:04:43.427Z,52.06
2023-05-19T20:07:11.483Z,52.30
2023-05-19T20:09:39.469Z,52.24
2023-05-19T20:12:08.465Z,52.45
2023-05-19T20:14:37.948Z,52.66
2023-05-19T20:17:06.292Z,52.88
2023-05-19T20:19:34.296Z,52.99
2023-05-19T20:22:02.391Z,52.87
2023-05-19T20:24:30.327Z,53.05
2023-05-19T20:26:58.262Z,52.89
2023-05-19T20:29:26.504Z,53.80
2023-05-19T20:31:57.224Z,53.69
2023-05-19T20:34:25.673Z,53.88
2023-05-19T20:36:53.847Z,54.05
2023-05-19T20:39:22.187Z,54.08
2023-05-19T20:41:50.084Z,53.75
2023-05-19T20:44:17.989Z,53.61
2023-05-19T20:46:46.134Z,54.73
2023-05-19T20:49:15.449Z,54.90
2023-05-19T20:51:43.326Z,55.25
2023-05-19T20:54:11.290Z,54.88
2023-05-19T20:56:39.176Z,55.06
2023-05-19T20:59:07.141Z,55.17
2023-05-19T21:01:35.140Z,55.17
2023-05-19T21:04:06.761Z,55.34
2023-05-19T21:06:36.202Z,55.34
2023-05-19T21:09:06.563Z,55.42
2023-05-19T21:11:35.021Z,55.72
2023-05-19T21:14:04.668Z,56.01
2023-05-19T21:16:33.909Z,55.82
2023-05-19T21:19:02.332Z,56.77
2023-05-19T21:21:31.616Z,56.27
2023-05-19T21:24:01.137Z,56.84
2023-05-19T21:26:29.167Z,56.70
2023-05-19T21:28:57.103Z,57.30
2023-05-19T21:31:25.059Z,56.28
2023-05-19T21:33:53.184Z,56.81
2023-05-19T21:36:21.101Z,57.31
2023-05-19T21:38:49.014Z,57.19
2023-05-19T21:41:18.334Z,57.67
2023-05-19T21:43:47.196Z,58.04
2023-05-19T21:46:15.384Z,57.92
2023-05-19T21:48:43.394Z,57.68
2023-05-19T21:51:11.361Z,57.84
2023-05-19T21:53:39.326Z,58.19
2023-05-19T21:56:07.580Z,58.00
2023-05-19T21:58:36.952Z,58.50
2023-05-19T22:01:05.835Z,58.41
2023-05-19T22:03:33.901Z,58.95
2023-05-19T22:06:01.949Z,58.81
2023-05-19T22:08:29.904Z,59.19
2023-05-19T22:10:57.899Z,59.47
2023-05-19T22:13:25.903Z,59.27
2023-05-19T22:15:55.402Z,59.47
2023-05-19T22:18:23.399Z,59.76
2023-05-19T22:20:51.359Z,59.99
2023-05-19T22:23:19.296Z,59.73
2023-05-19T22:25:47.272Z,60.17
2023-05-19T22:28:15.181Z,60.33
2023-05-19T22:30:44.009Z,60.31
2023-05-19T22:33:13.540Z,60.58
2023-05-19T22:35:41.501Z,60.55
2023-05-19T22:38:10.705Z,60.91
2023-05-19T22:40:39.140Z,61.16
2023-05-19T22:43:07.034Z,61.51
2023-05-19T22:45:35.920Z,61.82
2023-05-19T22:48:04.374Z,61.97
2023-05-19T22:50:33.823Z,62.55
2023-05-19T22:53:01.846Z,62.98
2023-05-19T22:55:29.788Z,63.26
2023-05-19T22:57:57.743Z,63.39
2023-05-19T23:00:25.855Z,63.62
2023-05-19T23:02:53.884Z,63.94
2023-05-19T23:05:21.913Z,64.02
2023-05-19T23:07:51.231Z,64.40
2023-05-19T23:10:19.435Z,64.20
2023-05-19T23:12:47.392Z,64.72
2023-05-19T23:15:15.682Z,64.71
2023-05-19T23:17:43.605Z,64.80
2023-05-19T23:20:14.119Z,64.98
2023-05-19T23:22:42.080Z,65.14
2023-05-19T23:25:11.514Z,65.88
2023-05-19T23:27:39.546Z,65.75
2023-05-19T23:30:09.351Z,65.90
2023-05-19T23:32:37.094Z,66.27
2023-05-19T23:35:17.648Z,66.36
2023-05-19T23:37:45.686Z,66.01
2023-05-19T23:40:15.914Z,66.32
2023-05-19T23:42:44.590Z,66.66
2023-05-19T23:45:12.969Z,67.66
2023-05-19T23:47:41.094Z,66.68
2023-05-19T23:50:10.259Z,66.46
2023-05-19T23:52:38.240Z,66.84
2023-05-19T23:55:07.678Z,67.15
2023-05-19T23:57:36.964Z,66.84
